sensor_id;sensor_type;location;lat;lon;timestamp;temperature;humidity
23497;DHT22;11925;48.122;11.560;2023-02-01T00:01:22;7.60;80.80
23497;DHT22;11925;48.122;11.560;2023-02-01T00:03:51;7.60;80.90
23497;DHT22;11925;48.122;11.560;2023-02-01T00:06:20;7.60;80.80
23497;DHT22;11925;48.122;11.560;2023-02-01T00:08:48;7.50;80.70
23497;DHT22;11925;48.122;11.560;2023-02-01T00:11:17;7.60;80.80
23497;DHT22;11925;48.122;11.560;2023-02-01T00:13:45;7.60;80.70
23497;DHT22;11925;48.122;11.560;2023-02-01T00:16:14;7.60;80.70
23497;DHT22;11925;48.122;11.560;2023-02-01T00:18:44;7.60;80.50
23497;DHT22;11925;48.122;11.560;2023-02-01T00:21:15;7.60;80.50
23497;DHT22;11925;48.122;11.560;2023-02-01T00:23:44;7.60;80.40
23497;DHT22;11925;48.122;11.560;2023-02-01T00:26:14;7.60;80.60
23497;DHT22;11925;48.122;11.560;2023-02-01T00:28:44;7.60;80.50
23497;DHT22;11925;48.122;11.560;2023-02-01T00:31:12;7.60;80.40
23497;DHT22;11925;48.122;11.560;2023-02-01T00:33:40;7.60;80.50
23497;DHT22;11925;48.122;11.560;2023-02-01T00:36:09;7.60;80.60
23497;DHT22;11925;48.122;11.560;2023-02-01T00:38:39;7.60;80.70
23497;DHT22;11925;48.122;11.560;2023-02-01T00:41:11;7.60;80.90
23497;DHT22;11925;48.122;11.560;2023-02-01T00:43:40;7.60;81.10
23497;DHT22;11925;48.122;11.560;2023-02-01T00:46:09;7.60;81.50
23497;DHT22;11925;48.122;11.560;2023-02-01T00:48:38;7.80;81.80
23497;DHT22;11925;48.122;11.560;2023-02-01T00:51:08;7.60;81.80
23497;DHT22;11925;48.122;11.560;2023-02-01T00:53:38;7.60;82.30
23497;DHT22;11925;48.122;11.560;2023-02-01T00:56:07;7.60;82.90
23497;DHT22;11925;48.122;11.560;2023-02-01T00:58:36;7.50;83.30
23497;DHT22;11925;48.122;11.560;2023-02-01T01:01:08;7.60;83.70
23497;DHT22;11925;48.122;11.560;2023-02-01T01:03:37;7.50;83.90
23497;DHT22;11925;48.122;11.560;2023-02-01T01:06:08;7.60;84.60
23497;DHT22;11925;48.122;11.560;2023-02-01T01:08:39;7.50;85.00
23497;DHT22;11925;48.122;11.560;2023-02-01T01:11:09;7.60;85.50
23497;DHT22;11925;48.122;11.560;2023-02-01T01:13:37;7.60;85.50
23497;DHT22;11925;48.122;11.560;2023-02-01T01:16:07;7.60;85.40
23497;DHT22;11925;48.122;11.560;2023-02-01T01:18:37;7.60;85.50
23497;DHT22;11925;48.122;11.560;2023-02-01T01:21:07;7.60;85.40
23497;DHT22;11925;48.122;11.560;2023-02-01T01:23:36;7.60;85.40
23497;DHT22;11925;48.122;11.560;2023-02-01T01:26:07;7.60;85.90
23497;DHT22;11925;48.122;11.560;2023-02-01T01:28:36;7.60;86.00
23497;DHT22;11925;48.122;11.560;2023-02-01T01:31:07;7.60;86.10
23497;DHT22;11925;48.122;11.560;2023-02-01T01:33:36;7.60;86.20
23497;DHT22;11925;48.122;11.560;2023-02-01T01:36:05;7.60;86.20
23497;DHT22;11925;48.122;11.560;2023-02-01T01:38:35;7.80;86.40
23497;DHT22;11925;48.122;11.560;2023-02-01T01:41:04;7.60;86.70
23497;DHT22;11925;48.122;11.560;2023-02-01T01:43:52;7.60;86.90
23497;DHT22;11925;48.122;11.560;2023-02-01T01:46:24;7.60;87.20
23497;DHT22;11925;48.122;11.560;2023-02-01T01:48:57;7.60;87.00
23497;DHT22;11925;48.122;11.560;2023-02-01T01:51:29;7.60;87.70
23497;DHT22;11925;48.122;11.560;2023-02-01T01:54:03;7.60;87.30
23497;DHT22;11925;48.122;11.560;2023-02-01T01:56:34;7.60;87.60
23497;DHT22;11925;48.122;11.560;2023-02-01T01:59:06;7.60;87.90
23497;DHT22;11925;48.122;11.560;2023-02-01T02:01:35;7.60;88.10
23497;DHT22;11925;48.122;11.560;2023-02-01T02:04:03;7.60;88.40
23497;DHT22;11925;48.122;11.560;2023-02-01T02:06:39;7.60;88.90
23497;DHT22;11925;48.122;11.560;2023-02-01T02:09:08;7.60;88.80
23497;DHT22;11925;48.122;11.560;2023-02-01T02:11:37;7.50;89.10
23497;DHT22;11925;48.122;11.560;2023-02-01T02:14:10;7.50;89.30
23497;DHT22;11925;48.122;11.560;2023-02-01T02:16:52;7.60;89.30
23497;DHT22;11925;48.122;11.560;2023-02-01T02:19:46;7.60;89.50
23497;DHT22;11925;48.122;11.560;2023-02-01T02:22:35;7.60;89.50
23497;DHT22;11925;48.122;11.560;2023-02-01T02:25:23;7.60;89.60
23497;DHT22;11925;48.122;11.560;2023-02-01T02:28:04;7.60;89.40
23497;DHT22;11925;48.122;11.560;2023-02-01T02:33:53;7.50;89.80
23497;DHT22;11925;48.122;11.560;2023-02-01T02:36:40;7.50;89.70
23497;DHT22;11925;48.122;11.560;2023-02-01T02:39:19;7.60;89.70
23497;DHT22;11925;48.122;11.560;2023-02-01T02:41:57;7.50;89.70
23497;DHT22;11925;48.122;11.560;2023-02-01T02:44:47;7.50;89.80
23497;DHT22;11925;48.122;11.560;2023-02-01T02:47:36;7.50;90.00
23497;DHT22;11925;48.122;11.560;2023-02-01T02:50:14;7.50;90.00
23497;DHT22;11925;48.122;11.560;2023-02-01T02:53:07;7.50;90.00
23497;DHT22;11925;48.122;11.560;2023-02-01T02:55:56;7.50;90.00
23497;DHT22;11925;48.122;11.560;2023-02-01T02:58:43;7.50;90.00
23497;DHT22;11925;48.122;11.560;2023-02-01T03:01:32;7.50;90.00
23497;DHT22;11925;48.122;11.560;2023-02-01T03:04:18;7.50;90.10
23497;DHT22;11925;48.122;11.560;2023-02-01T03:06:50;7.50;90.00
23497;DHT22;11925;48.122;11.560;2023-02-01T03:09:24;7.60;90.00
23497;DHT22;11925;48.122;11.560;2023-02-01T03:11:58;7.50;90.00
23497;DHT22;11925;48.122;11.560;2023-02-01T03:14:48;7.60;90.00
23497;DHT22;11925;48.122;11.560;2023-02-01T03:17:22;7.60;90.00
23497;DHT22;11925;48.122;11.560;2023-02-01T03:19:55;7.50;90.00
23497;DHT22;11925;48.122;11.560;2023-02-01T03:22:28;7.50;90.00
23497;DHT22;11925;48.122;11.560;2023-02-01T03:25:01;7.60;90.00
23497;DHT22;11925;48.122;11.560;2023-02-01T03:27:34;7.50;90.00
23497;DHT22;11925;48.122;11.560;2023-02-01T03:30:08;7.50;90.00
23497;DHT22;11925;48.122;11.560;2023-02-01T03:32:42;7.50;90.00
23497;DHT22;11925;48.122;11.560;2023-02-01T03:35:40;7.40;89.90
23497;DHT22;11925;48.122;11.560;2023-02-01T03:38:15;7.50;90.00
23497;DHT22;11925;48.122;11.560;2023-02-01T03:40:50;7.50;89.90
23497;DHT22;11925;48.122;11.560;2023-02-01T03:43:21;7.50;89.90
23497;DHT22;11925;48.122;11.560;2023-02-01T03:45:54;7.60;89.80
23497;DHT22;11925;48.122;11.560;2023-02-01T03:48:26;7.50;89.70
23497;DHT22;11925;48.122;11.560;2023-02-01T03:51:00;7.50;89.70
23497;DHT22;11925;48.122;11.560;2023-02-01T03:53:30;7.50;89.80
23497;DHT22;11925;48.122;11.560;2023-02-01T03:55:59;7.50;89.70
23497;DHT22;11925;48.122;11.560;2023-02-01T03:58:28;7.50;89.70
23497;DHT22;11925;48.122;11.560;2023-02-01T04:00:58;7.50;89.70
23497;DHT22;11925;48.122;11.560;2023-02-01T04:03:29;7.50;89.50
23497;DHT22;11925;48.122;11.560;2023-02-01T04:06:00;7.50;89.40
23497;DHT22;11925;48.122;11.560;2023-02-01T04:08:29;7.60;89.40
23497;DHT22;11925;48.122;11.560;2023-02-01T04:10:57;7.60;89.30
23497;DHT22;11925;48.122;11.560;2023-02-01T04:13:25;7.50;89.20
23497;DHT22;11925;48.122;11.560;2023-02-01T04:15:54;7.60;89.30
23497;DHT22;11925;48.122;11.560;2023-02-01T04:18:22;7.60;89.10
23497;DHT22;11925;48.122;11.560;2023-02-01T04:20:50;7.60;88.90
23497;DHT22;11925;48.122;11.560;2023-02-01T04:23:20;7.60;89.00
23497;DHT22;11925;48.122;11.560;2023-02-01T04:25:48;7.60;88.90
23497;DHT22;11925;48.122;11.560;2023-02-01T04:28:19;7.60;88.90
23497;DHT22;11925;48.122;11.560;2023-02-01T04:30:47;7.60;88.90
23497;DHT22;11925;48.122;11.560;2023-02-01T04:33:15;7.60;88.90
23497;DHT22;11925;48.122;11.560;2023-02-01T04:35:44;7.60;88.90
23497;DHT22;11925;48.122;11.560;2023-02-01T04:38:12;7.60;88.80
23497;DHT22;11925;48.122;11.560;2023-02-01T04:40:42;7.60;88.80
23497;DHT22;11925;48.122;11.560;2023-02-01T04:43:10;7.60;88.70
23497;DHT22;11925;48.122;11.560;2023-02-01T04:45:39;7.60;88.60
23497;DHT22;11925;48.122;11.560;2023-02-01T04:48:07;7.30;88.40
23497;DHT22;11925;48.122;11.560;2023-02-01T04:50:35;7.60;88.30
23497;DHT22;11925;48.122;11.560;2023-02-01T04:53:04;7.60;88.20
23497;DHT22;11925;48.122;11.560;2023-02-01T04:55:32;7.60;88.20
23497;DHT22;11925;48.122;11.560;2023-02-01T04:58:02;7.60;88.20
23497;DHT22;11925;48.122;11.560;2023-02-01T05:00:30;7.60;88.10
23497;DHT22;11925;48.122;11.560;2023-02-01T05:02:59;7.60;88.10
23497;DHT22;11925;48.122;11.560;2023-02-01T05:05:27;7.60;88.10
23497;DHT22;11925;48.122;11.560;2023-02-01T05:07:56;7.60;88.10
23497;DHT22;11925;48.122;11.560;2023-02-01T05:10:24;7.60;88.00
23497;DHT22;11925;48.122;11.560;2023-02-01T05:12:53;7.60;87.90
23497;DHT22;11925;48.122;11.560;2023-02-01T05:15:40;7.60;87.70
23497;DHT22;11925;48.122;11.560;2023-02-01T05:18:09;7.60;87.80
23497;DHT22;11925;48.122;11.560;2023-02-01T05:20:37;7.50;87.70
23497;DHT22;11925;48.122;11.560;2023-02-01T05:23:05;7.60;87.70
23497;DHT22;11925;48.122;11.560;2023-02-01T05:25:33;7.60;87.70
23497;DHT22;11925;48.122;11.560;2023-02-01T05:28:02;7.60;87.50
23497;DHT22;11925;48.122;11.560;2023-02-01T05:30:30;7.60;87.60
23497;DHT22;11925;48.122;11.560;2023-02-01T05:33:01;7.50;87.50
23497;DHT22;11925;48.122;11.560;2023-02-01T05:35:29;7.50;87.50
23497;DHT22;11925;48.122;11.560;2023-02-01T05:37:57;7.50;87.40
23497;DHT22;11925;48.122;11.560;2023-02-01T05:40:25;7.60;87.40
23497;DHT22;11925;48.122;11.560;2023-02-01T05:42:54;7.60;87.40
23497;DHT22;11925;48.122;11.560;2023-02-01T05:45:22;7.60;87.40
23497;DHT22;11925;48.122;11.560;2023-02-01T05:47:50;7.60;87.30
23497;DHT22;11925;48.122;11.560;2023-02-01T05:50:20;7.60;87.20
23497;DHT22;11925;48.122;11.560;2023-02-01T05:52:56;7.60;87.20
23497;DHT22;11925;48.122;11.560;2023-02-01T05:55:24;7.60;87.10
23497;DHT22;11925;48.122;11.560;2023-02-01T05:57:52;7.60;87.10
23497;DHT22;11925;48.122;11.560;2023-02-01T06:00:21;7.60;87.20
23497;DHT22;11925;48.122;11.560;2023-02-01T06:02:51;7.60;87.10
23497;DHT22;11925;48.122;11.560;2023-02-01T06:05:20;7.60;87.20
23497;DHT22;11925;48.122;11.560;2023-02-01T06:07:49;7.50;87.10
23497;DHT22;11925;48.122;11.560;2023-02-01T06:10:17;7.60;87.10
23497;DHT22;11925;48.122;11.560;2023-02-01T06:12:46;7.60;87.10
23497;DHT22;11925;48.122;11.560;2023-02-01T06:15:15;7.60;87.10
23497;DHT22;11925;48.122;11.560;2023-02-01T06:17:44;7.60;87.20
23497;DHT22;11925;48.122;11.560;2023-02-01T06:20:14;7.60;87.20
23497;DHT22;11925;48.122;11.560;2023-02-01T06:22:43;7.60;87.10
23497;DHT22;11925;48.122;11.560;2023-02-01T06:25:12;7.60;87.10
23497;DHT22;11925;48.122;11.560;2023-02-01T06:27:40;7.60;87.10
23497;DHT22;11925;48.122;11.560;2023-02-01T06:30:09;7.60;87.00
23497;DHT22;11925;48.122;11.560;2023-02-01T06:32:41;7.60;87.00
23497;DHT22;11925;48.122;11.560;2023-02-01T06:35:09;7.60;87.00
23497;DHT22;11925;48.122;11.560;2023-02-01T06:37:44;7.60;86.90
23497;DHT22;11925;48.122;11.560;2023-02-01T06:40:13;7.60;86.90
23497;DHT22;11925;48.122;11.560;2023-02-01T06:42:41;7.50;86.90
23497;DHT22;11925;48.122;11.560;2023-02-01T06:45:10;7.60;86.90
23497;DHT22;11925;48.122;11.560;2023-02-01T06:47:38;7.50;86.90
23497;DHT22;11925;48.122;11.560;2023-02-01T06:50:08;7.60;86.80
23497;DHT22;11925;48.122;11.560;2023-02-01T06:52:36;7.60;86.70
23497;DHT22;11925;48.122;11.560;2023-02-01T06:55:07;7.60;86.80
23497;DHT22;11925;48.122;11.560;2023-02-01T06:57:35;7.60;86.80
23497;DHT22;11925;48.122;11.560;2023-02-01T07:00:04;7.60;86.80
23497;DHT22;11925;48.122;11.560;2023-02-01T07:02:33;7.60;86.70
23497;DHT22;11925;48.122;11.560;2023-02-01T07:05:01;7.60;86.70
23497;DHT22;11925;48.122;11.560;2023-02-01T07:07:29;7.50;86.70
23497;DHT22;11925;48.122;11.560;2023-02-01T07:09:58;7.60;86.70
23497;DHT22;11925;48.122;11.560;2023-02-01T07:12:27;7.60;86.80
23497;DHT22;11925;48.122;11.560;2023-02-01T07:14:56;7.60;86.50
23497;DHT22;11925;48.122;11.560;2023-02-01T07:17:24;7.60;86.50
23497;DHT22;11925;48.122;11.560;2023-02-01T07:19:53;7.60;86.70
23497;DHT22;11925;48.122;11.560;2023-02-01T07:22:21;7.60;86.70
23497;DHT22;11925;48.122;11.560;2023-02-01T07:24:49;7.60;86.90
23497;DHT22;11925;48.122;11.560;2023-02-01T07:27:17;7.60;86.80
23497;DHT22;11925;48.122;11.560;2023-02-01T07:29:48;8.10;87.20
23497;DHT22;11925;48.122;11.560;2023-02-01T07:32:16;7.60;86.70
23497;DHT22;11925;48.122;11.560;2023-02-01T07:34:45;7.60;86.60
23497;DHT22;11925;48.122;11.560;2023-02-01T07:37:13;7.60;86.60
23497;DHT22;11925;48.122;11.560;2023-02-01T07:39:41;7.60;86.40
23497;DHT22;11925;48.122;11.560;2023-02-01T07:42:10;7.70;86.30
23497;DHT22;11925;48.122;11.560;2023-02-01T07:44:38;7.70;86.20
23497;DHT22;11925;48.122;11.560;2023-02-01T07:47:08;7.70;86.30
23497;DHT22;11925;48.122;11.560;2023-02-01T07:49:36;7.90;86.50
23497;DHT22;11925;48.122;11.560;2023-02-01T07:52:04;7.70;86.30
23497;DHT22;11925;48.122;11.560;2023-02-01T07:54:33;7.70;86.10
23497;DHT22;11925;48.122;11.560;2023-02-01T07:57:01;7.70;86.00
23497;DHT22;11925;48.122;11.560;2023-02-01T07:59:29;7.70;85.90
23497;DHT22;11925;48.122;11.560;2023-02-01T08:01:58;7.70;85.90
23497;DHT22;11925;48.122;11.560;2023-02-01T08:04:27;7.70;85.90
23497;DHT22;11925;48.122;11.560;2023-02-01T08:06:56;7.70;85.70
23497;DHT22;11925;48.122;11.560;2023-02-01T08:09:24;7.60;85.70
23497;DHT22;11925;48.122;11.560;2023-02-01T08:11:52;7.70;85.60
23497;DHT22;11925;48.122;11.560;2023-02-01T08:14:20;7.70;85.40
23497;DHT22;11925;48.122;11.560;2023-02-01T08:16:49;7.70;85.30
23497;DHT22;11925;48.122;11.560;2023-02-01T08:19:17;7.70;85.10
23497;DHT22;11925;48.122;11.560;2023-02-01T08:21:47;7.70;85.00
23497;DHT22;11925;48.122;11.560;2023-02-01T08:24:15;7.70;84.90
23497;DHT22;11925;48.122;11.560;2023-02-01T08:26:44;7.70;84.70
23497;DHT22;11925;48.122;11.560;2023-02-01T08:29:12;7.70;84.70
23497;DHT22;11925;48.122;11.560;2023-02-01T08:31:40;7.70;84.50
23497;DHT22;11925;48.122;11.560;2023-02-01T08:34:10;7.60;84.60
23497;DHT22;11925;48.122;11.560;2023-02-01T08:36:39;7.60;84.50
23497;DHT22;11925;48.122;11.560;2023-02-01T08:39:10;7.70;84.40
23497;DHT22;11925;48.122;11.560;2023-02-01T08:41:39;7.70;84.20
23497;DHT22;11925;48.122;11.560;2023-02-01T08:44:09;7.70;84.00
23497;DHT22;11925;48.122;11.560;2023-02-01T08:46:37;7.60;84.00
23497;DHT22;11925;48.122;11.560;2023-02-01T08:49:05;7.60;83.90
23497;DHT22;11925;48.122;11.560;2023-02-01T08:51:33;7.60;83.80
23497;DHT22;11925;48.122;11.560;2023-02-01T08:54:02;7.70;83.90
23497;DHT22;11925;48.122;11.560;2023-02-01T08:56:31;7.70;83.80
23497;DHT22;11925;48.122;11.560;2023-02-01T08:59:00;7.70;83.80
23497;DHT22;11925;48.122;11.560;2023-02-01T09:01:28;7.70;83.50
23497;DHT22;11925;48.122;11.560;2023-02-01T09:03:56;7.70;83.40
23497;DHT22;11925;48.122;11.560;2023-02-01T09:06:25;7.70;83.40
23497;DHT22;11925;48.122;11.560;2023-02-01T09:08:53;7.70;83.20
23497;DHT22;11925;48.122;11.560;2023-02-01T09:11:22;7.70;83.10
23497;DHT22;11925;48.122;11.560;2023-02-01T09:13:51;7.70;83.10
23497;DHT22;11925;48.122;11.560;2023-02-01T09:16:20;7.70;83.20
23497;DHT22;11925;48.122;11.560;2023-02-01T09:18:48;7.70;83.10
23497;DHT22;11925;48.122;11.560;2023-02-01T09:21:33;7.70;83.10
23497;DHT22;11925;48.122;11.560;2023-02-01T09:24:02;7.70;82.90
23497;DHT22;11925;48.122;11.560;2023-02-01T09:26:31;7.70;82.90
23497;DHT22;11925;48.122;11.560;2023-02-01T09:29:01;7.70;82.90
23497;DHT22;11925;48.122;11.560;2023-02-01T09:31:30;7.70;83.10
23497;DHT22;11925;48.122;11.560;2023-02-01T09:33:58;7.70;83.10
23497;DHT22;11925;48.122;11.560;2023-02-01T09:36:28;7.70;83.00
23497;DHT22;11925;48.122;11.560;2023-02-01T09:38:57;7.80;83.10
23497;DHT22;11925;48.122;11.560;2023-02-01T09:41:42;7.80;83.20
23497;DHT22;11925;48.122;11.560;2023-02-01T09:44:25;7.70;83.20
23497;DHT22;11925;48.122;11.560;2023-02-01T09:47:12;7.70;83.10
23497;DHT22;11925;48.122;11.560;2023-02-01T09:49:48;7.70;83.10
23497;DHT22;11925;48.122;11.560;2023-02-01T09:52:22;7.80;83.30
23497;DHT22;11925;48.122;11.560;2023-02-01T09:54:54;7.80;83.40
23497;DHT22;11925;48.122;11.560;2023-02-01T09:57:29;7.80;83.50
23497;DHT22;11925;48.122;11.560;2023-02-01T10:00:06;7.70;83.50
23497;DHT22;11925;48.122;11.560;2023-02-01T10:02:42;7.80;83.40
23497;DHT22;11925;48.122;11.560;2023-02-01T10:05:14;7.80;83.40
23497;DHT22;11925;48.122;11.560;2023-02-01T10:07:51;7.80;83.60
23497;DHT22;11925;48.122;11.560;2023-02-01T10:10:29;7.70;83.60
23497;DHT22;11925;48.122;11.560;2023-02-01T10:13:11;7.70;83.60
23497;DHT22;11925;48.122;11.560;2023-02-01T10:16:08;7.60;83.90
23497;DHT22;11925;48.122;11.560;2023-02-01T10:19:10;7.70;83.80
23497;DHT22;11925;48.122;11.560;2023-02-01T10:21:53;7.70;83.60
23497;DHT22;11925;48.122;11.560;2023-02-01T10:24:40;7.80;83.80
23497;DHT22;11925;48.122;11.560;2023-02-01T10:27:16;7.70;83.80
23497;DHT22;11925;48.122;11.560;2023-02-01T10:29:48;7.70;83.80
23497;DHT22;11925;48.122;11.560;2023-02-01T10:32:23;7.70;83.70
23497;DHT22;11925;48.122;11.560;2023-02-01T10:34:57;7.70;83.70
23497;DHT22;11925;48.122;11.560;2023-02-01T10:37:28;7.80;83.70
23497;DHT22;11925;48.122;11.560;2023-02-01T10:40:00;7.70;83.60
23497;DHT22;11925;48.122;11.560;2023-02-01T10:42:29;7.70;83.80
23497;DHT22;11925;48.122;11.560;2023-02-01T10:45:01;7.80;83.90
23497;DHT22;11925;48.122;11.560;2023-02-01T10:47:32;7.70;83.80
23497;DHT22;11925;48.122;11.560;2023-02-01T10:50:08;7.80;83.80
23497;DHT22;11925;48.122;11.560;2023-02-01T10:52:45;7.80;84.00
23497;DHT22;11925;48.122;11.560;2023-02-01T10:55:39;7.80;83.90
23497;DHT22;11925;48.122;11.560;2023-02-01T10:58:15;7.70;84.10
23497;DHT22;11925;48.122;11.560;2023-02-01T11:00:47;7.70;84.20
23497;DHT22;11925;48.122;11.560;2023-02-01T11:03:37;7.70;84.20
23497;DHT22;11925;48.122;11.560;2023-02-01T11:06:15;7.80;84.30
23497;DHT22;11925;48.122;11.560;2023-02-01T11:08:47;7.80;84.10
23497;DHT22;11925;48.122;11.560;2023-02-01T11:11:15;7.80;84.10
23497;DHT22;11925;48.122;11.560;2023-02-01T11:13:53;7.70;84.10
23497;DHT22;11925;48.122;11.560;2023-02-01T11:16:30;7.70;84.30
23497;DHT22;11925;48.122;11.560;2023-02-01T11:19:00;7.80;84.30
23497;DHT22;11925;48.122;11.560;2023-02-01T11:21:28;7.70;84.20
23497;DHT22;11925;48.122;11.560;2023-02-01T11:24:01;7.80;84.30
23497;DHT22;11925;48.122;11.560;2023-02-01T11:26:30;7.80;84.30
23497;DHT22;11925;48.122;11.560;2023-02-01T11:29:03;7.80;84.30
23497;DHT22;11925;48.122;11.560;2023-02-01T11:31:33;7.80;84.30
23497;DHT22;11925;48.122;11.560;2023-02-01T11:34:08;7.80;84.30
23497;DHT22;11925;48.122;11.560;2023-02-01T11:36:37;7.80;84.20
23497;DHT22;11925;48.122;11.560;2023-02-01T11:39:10;7.80;84.30
23497;DHT22;11925;48.122;11.560;2023-02-01T11:41:42;7.80;84.40
23497;DHT22;11925;48.122;11.560;2023-02-01T11:44:21;7.80;84.50
23497;DHT22;11925;48.122;11.560;2023-02-01T11:46:49;7.80;84.30
23497;DHT22;11925;48.122;11.560;2023-02-01T11:49:24;7.80;84.30
23497;DHT22;11925;48.122;11.560;2023-02-01T11:52:09;7.70;84.20
23497;DHT22;11925;48.122;11.560;2023-02-01T11:54:58;7.70;84.30
23497;DHT22;11925;48.122;11.560;2023-02-01T11:57:42;7.80;84.30
23497;DHT22;11925;48.122;11.560;2023-02-01T12:00:30;7.80;84.10
23497;DHT22;11925;48.122;11.560;2023-02-01T12:03:35;7.70;84.00
23497;DHT22;11925;48.122;11.560;2023-02-01T12:06:12;7.70;84.20
23497;DHT22;11925;48.122;11.560;2023-02-01T12:09:02;7.80;84.20
23497;DHT22;11925;48.122;11.560;2023-02-01T12:11:43;7.80;84.00
23497;DHT22;11925;48.122;11.560;2023-02-01T12:14:31;7.80;84.10
23497;DHT22;11925;48.122;11.560;2023-02-01T12:20:06;7.80;84.00
23497;DHT22;11925;48.122;11.560;2023-02-01T12:22:49;7.80;84.00
23497;DHT22;11925;48.122;11.560;2023-02-01T12:25:29;7.80;84.00
23497;DHT22;11925;48.122;11.560;2023-02-01T12:28:35;7.80;84.20
23497;DHT22;11925;48.122;11.560;2023-02-01T12:34:29;7.80;84.00
23497;DHT22;11925;48.122;11.560;2023-02-01T12:37:06;7.80;83.90
23497;DHT22;11925;48.122;11.560;2023-02-01T12:39:40;7.80;83.90
23497;DHT22;11925;48.122;11.560;2023-02-01T12:42:14;7.70;83.80
23497;DHT22;11925;48.122;11.560;2023-02-01T12:44:48;7.70;83.80
23497;DHT22;11925;48.122;11.560;2023-02-01T12:47:21;7.80;83.60
23497;DHT22;11925;48.122;11.560;2023-02-01T12:49:57;7.80;83.40
23497;DHT22;11925;48.122;11.560;2023-02-01T12:52:32;7.80;83.40
23497;DHT22;11925;48.122;11.560;2023-02-01T12:55:10;7.80;83.20
23497;DHT22;11925;48.122;11.560;2023-02-01T12:57:46;7.70;83.10
23497;DHT22;11925;48.122;11.560;2023-02-01T13:00:22;7.70;82.80
23497;DHT22;11925;48.122;11.560;2023-02-01T13:02:56;7.70;82.90
23497;DHT22;11925;48.122;11.560;2023-02-01T13:05:31;7.70;82.70
23497;DHT22;11925;48.122;11.560;2023-02-01T13:08:06;7.70;82.50
23497;DHT22;11925;48.122;11.560;2023-02-01T13:10:38;7.70;82.50
23497;DHT22;11925;48.122;11.560;2023-02-01T13:13:14;7.70;82.30
23497;DHT22;11925;48.122;11.560;2023-02-01T13:15:48;7.70;82.50
23497;DHT22;11925;48.122;11.560;2023-02-01T13:18:20;7.70;82.20
23497;DHT22;11925;48.122;11.560;2023-02-01T13:20:55;7.70;82.30
23497;DHT22;11925;48.122;11.560;2023-02-01T13:23:27;7.80;82.30
23497;DHT22;11925;48.122;11.560;2023-02-01T13:25:58;7.80;82.30
23497;DHT22;11925;48.122;11.560;2023-02-01T13:28:40;7.70;82.40
23497;DHT22;11925;48.122;11.560;2023-02-01T13:31:41;7.70;82.60
23497;DHT22;11925;48.122;11.560;2023-02-01T13:37:47;7.70;83.20
23497;DHT22;11925;48.122;11.560;2023-02-01T13:40:41;7.70;83.40
23497;DHT22;11925;48.122;11.560;2023-02-01T13:43:15;7.70;83.40
23497;DHT22;11925;48.122;11.560;2023-02-01T13:45:47;7.70;83.60
23497;DHT22;11925;48.122;11.560;2023-02-01T13:48:22;7.80;83.60
23497;DHT22;11925;48.122;11.560;2023-02-01T13:50:54;7.70;83.80
23497;DHT22;11925;48.122;11.560;2023-02-01T13:53:28;7.80;83.80
23497;DHT22;11925;48.122;11.560;2023-02-01T13:55:59;7.80;83.90
23497;DHT22;11925;48.122;11.560;2023-02-01T13:58:34;7.80;84.00
23497;DHT22;11925;48.122;11.560;2023-02-01T14:01:31;7.80;84.00
23497;DHT22;11925;48.122;11.560;2023-02-01T14:04:03;7.80;84.10
23497;DHT22;11925;48.122;11.560;2023-02-01T14:06:44;7.80;84.10
23497;DHT22;11925;48.122;11.560;2023-02-01T14:09:16;7.80;84.30
23497;DHT22;11925;48.122;11.560;2023-02-01T14:11:49;7.80;84.10
23497;DHT22;11925;48.122;11.560;2023-02-01T14:14:47;7.80;84.40
23497;DHT22;11925;48.122;11.560;2023-02-01T14:17:33;7.70;84.40
23497;DHT22;11925;48.122;11.560;2023-02-01T14:23:09;7.80;84.30
23497;DHT22;11925;48.122;11.560;2023-02-01T14:25:40;7.80;84.10
23497;DHT22;11925;48.122;11.560;2023-02-01T14:28:19;7.90;84.10
23497;DHT22;11925;48.122;11.560;2023-02-01T14:30:53;8.10;83.80
23497;DHT22;11925;48.122;11.560;2023-02-01T14:33:22;8.20;83.60
23497;DHT22;11925;48.122;11.560;2023-02-01T14:36:03;8.30;83.50
23497;DHT22;11925;48.122;11.560;2023-02-01T14:38:35;8.30;83.90
23497;DHT22;11925;48.122;11.560;2023-02-01T14:41:31;8.20;83.40
23497;DHT22;11925;48.122;11.560;2023-02-01T14:44:31;8.00;83.30
23497;DHT22;11925;48.122;11.560;2023-02-01T14:47:34;7.90;83.20
23497;DHT22;11925;48.122;11.560;2023-02-01T14:50:26;7.90;83.00
23497;DHT22;11925;48.122;11.560;2023-02-01T14:53:08;7.80;83.00
23497;DHT22;11925;48.122;11.560;2023-02-01T14:55:41;7.80;83.10
23497;DHT22;11925;48.122;11.560;2023-02-01T14:58:14;7.80;82.90
23497;DHT22;11925;48.122;11.560;2023-02-01T15:00:49;7.80;82.70
23497;DHT22;11925;48.122;11.560;2023-02-01T15:03:36;7.80;82.60
23497;DHT22;11925;48.122;11.560;2023-02-01T15:06:24;7.80;82.70
23497;DHT22;11925;48.122;11.560;2023-02-01T15:08:56;7.70;82.80
23497;DHT22;11925;48.122;11.560;2023-02-01T15:11:25;7.70;82.70
23497;DHT22;11925;48.122;11.560;2023-02-01T15:13:54;7.80;82.90
23497;DHT22;11925;48.122;11.560;2023-02-01T15:16:25;7.80;82.90
23497;DHT22;11925;48.122;11.560;2023-02-01T15:19:13;7.80;82.90
23497;DHT22;11925;48.122;11.560;2023-02-01T15:21:47;7.80;83.10
23497;DHT22;11925;48.122;11.560;2023-02-01T15:24:20;7.80;83.00
23497;DHT22;11925;48.122;11.560;2023-02-01T15:26:49;7.80;83.20
23497;DHT22;11925;48.122;11.560;2023-02-01T15:29:19;7.80;83.40
23497;DHT22;11925;48.122;11.560;2023-02-01T15:31:50;7.80;83.60
23497;DHT22;11925;48.122;11.560;2023-02-01T15:34:21;7.70;83.90
23497;DHT22;11925;48.122;11.560;2023-02-01T15:36:49;7.70;84.20
23497;DHT22;11925;48.122;11.560;2023-02-01T15:39:29;7.70;84.50
23497;DHT22;11925;48.122;11.560;2023-02-01T15:42:08;7.70;84.50
23497;DHT22;11925;48.122;11.560;2023-02-01T15:44:39;7.70;85.00
23497;DHT22;11925;48.122;11.560;2023-02-01T15:47:14;7.70;85.40
23497;DHT22;11925;48.122;11.560;2023-02-01T15:49:47;7.70;85.90
23497;DHT22;11925;48.122;11.560;2023-02-01T15:52:23;7.70;86.00
23497;DHT22;11925;48.122;11.560;2023-02-01T15:54:55;7.70;86.30
23497;DHT22;11925;48.122;11.560;2023-02-01T15:57:27;7.70;86.30
23497;DHT22;11925;48.122;11.560;2023-02-01T15:59:59;7.80;86.60
23497;DHT22;11925;48.122;11.560;2023-02-01T16:02:43;7.80;86.60
23497;DHT22;11925;48.122;11.560;2023-02-01T16:05:33;7.70;86.60
23497;DHT22;11925;48.122;11.560;2023-02-01T16:08:06;7.80;86.80
23497;DHT22;11925;48.122;11.560;2023-02-01T16:10:39;7.80;86.60
23497;DHT22;11925;48.122;11.560;2023-02-01T16:13:09;7.70;86.50
23497;DHT22;11925;48.122;11.560;2023-02-01T16:15:38;7.80;86.70
23497;DHT22;11925;48.122;11.560;2023-02-01T16:18:06;7.70;86.30
23497;DHT22;11925;48.122;11.560;2023-02-01T16:20:39;7.70;86.00
23497;DHT22;11925;48.122;11.560;2023-02-01T16:23:08;7.70;85.90
23497;DHT22;11925;48.122;11.560;2023-02-01T16:25:39;7.70;85.60